Time;durP1;ratioP1;P1;durP2;ratioP2;P2;SDS_P1;SDS_P2;PMS_P1;PMS_P2;Temp;Humidity;BMP_temperature;BMP_pressure;BME280_temperature;BME280_humidity;BME280_pressure;Samples;Min_cycle;Max_cycle;Signal;HPM_P1;HPM_P2
2021/12/15 00:00:23;;;;;;;;;;;;;;;22.31;30.18;96809.53;1030147;28;1189;-54
2021/12/15 00:00:53;;;;;;;;;;;;;;;22.31;30.01;96808.75;1030389;28;1350;-55
2021/12/15 00:01:24;;;;;;;;;;;;;;;22.30;30.40;96809.78;1031004;28;1066;-53
2021/12/15 00:01:58;;;;;;;;;;;;;;;22.28;29.29;96803.97;1032466;28;1132;-54
2021/12/15 00:02:29;;;;;;;;;;;;;;;22.27;29.86;96808.47;1030182;28;1573;-56
2021/12/15 00:02:59;;;;;;;;;;;;;;;22.28;30.33;96804.75;1028511;28;1148;-52
2021/12/15 00:03:30;;;;;;;;;;;;;;;22.29;29.37;96806.38;1032819;28;1708;-53
2021/12/15 00:04:01;;;;;;;;;;;;;;;22.29;29.93;96803.72;1029022;28;1121;-53
2021/12/15 00:04:31;;;;;;;;;;;;;;;22.28;29.56;96809.25;1031576;28;1260;-54
2021/12/15 00:05:02;;;;;;;;;;;;;;;22.29;29.88;96811.66;1029408;28;1188;-56
2021/12/15 00:05:32;;;;;;;;;;;;;;;22.29;29.64;96811.66;1029759;28;1302;-54
2021/12/15 00:06:10;;;;;;;;;;;;;;;22.29;29.98;96800.28;1027376;28;1948;-55
2021/12/15 00:06:40;;;;;;;;;;;;;;;22.30;30.09;96807.94;1025827;28;1721;-55
2021/12/15 00:07:11;;;;;;;;;;;;;;;22.30;29.82;96807.13;1027474;28;1860;-55
2021/12/15 00:07:41;;;;;;;;;;;;;;;22.31;29.85;96806.09;1028584;28;1899;-54
2021/12/15 00:08:11;;;;;;;;;;;;;;;22.29;30.33;96811.66;1028989;28;1011;-56
2021/12/15 00:08:42;;;;;;;;;;;;;;;22.29;30.48;96808.22;1029518;28;1401;-54
2021/12/15 00:09:12;;;;;;;;;;;;;;;22.27;29.69;96811.13;1029684;28;1883;-53
2021/12/15 00:09:43;;;;;;;;;;;;;;;22.27;30.32;96808.47;1029529;28;1617;-56
2021/12/15 00:10:13;;;;;;;;;;;;;;;22.28;29.48;96815.34;1031433;28;1468;-54
2021/12/15 00:10:44;;;;;;;;;;;;;;;22.30;30.48;96820.34;1032374;28;1715;-56
2021/12/15 00:11:15;;;;;;;;;;;;;;;22.28;29.92;96810.03;1027582;28;2190;-52
2021/12/15 00:11:46;;;;;;;;;;;;;;;22.28;29.81;96810.03;1027685;28;1149;-56
2021/12/15 00:12:16;;;;;;;;;;;;;;;22.27;30.33;96819.03;1030320;28;1880;-55
2021/12/15 00:12:47;;;;;;;;;;;;;;;22.28;29.85;96814.53;1032557;28;1128;-55
2021/12/15 00:13:18;;;;;;;;;;;;;;;22.26;29.25;96812.16;1032795;28;1112;-56
2021/12/15 00:13:48;;;;;;;;;;;;;;;22.25;30.12;96805.31;1032365;28;1401;-53
2021/12/15 00:14:18;;;;;;;;;;;;;;;22.27;30.12;96811.13;1031833;28;1102;-52
2021/12/15 00:14:49;;;;;;;;;;;;;;;22.26;29.59;96816.63;1031424;28;1145;-56
2021/12/15 00:15:21;;;;;;;;;;;;;;;22.26;29.89;96811.34;1031738;28;1628;-52
2021/12/15 00:15:51;;;;;;;;;;;;;;;22.27;29.90;96818.25;1032651;28;1464;-55
2021/12/15 00:16:22;;;;;;;;;;;;;;;22.26;30.03;96817.44;1032455;28;1398;-52
2021/12/15 00:16:52;;;;;;;;;;;;;;;22.26;29.41;96817.44;1031756;28;1809;-54
2021/12/15 00:17:23;;;;;;;;;;;;;;;22.28;29.72;96814.53;1030326;28;2126;-56
2021/12/15 00:17:54;;;;;;;;;;;;;;;22.26;29.89;96820.06;1032664;28;918;-55
2021/12/15 00:18:25;;;;;;;;;;;;;;;22.30;30.58;96817.72;1032263;28;999;-55
2021/12/15 00:18:55;;;;;;;;;;;;;;;22.29;30.08;96811.66;1029977;28;1076;-53
2021/12/15 00:19:27;;;;;;;;;;;;;;;22.29;30.38;96806.38;1030136;28;1342;-56
2021/12/15 00:19:57;;;;;;;;;;;;;;;22.29;30.06;96816.13;1030376;28;1831;-53
2021/12/15 00:20:28;;;;;;;;;;;;;;;22.28;29.68;96815.34;1031093;28;1303;-55
2021/12/15 00:20:58;;;;;;;;;;;;;;;22.27;29.06;96810.31;1032503;28;1156;-53
2021/12/15 00:21:29;;;;;;;;;;;;;;;22.28;29.83;96815.34;1030083;28;1132;-55
2021/12/15 00:21:59;;;;;;;;;;;;;;;22.27;29.56;96816.41;1031671;28;1180;-54
2021/12/15 00:22:30;;;;;;;;;;;;;;;22.26;29.31;96822.72;1027357;28;2198;-55
2021/12/15 00:23:00;;;;;;;;;;;;;;;22.24;29.51;96816.91;1025265;28;1224;-53
2021/12/15 00:23:30;;;;;;;;;;;;;;;22.24;29.43;96816.91;1027378;28;1550;-54
2021/12/15 00:24:03;;;;;;;;;;;;;;;22.25;29.70;96822.97;1023806;28;1696;-54
2021/12/15 00:24:33;;;;;;;;;;;;;;;22.25;30.08;96821.16;1028109;28;1418;-54
2021/12/15 00:25:04;;;;;;;;;;;;;;;22.25;29.97;96826.44;1027918;28;1323;-55
2021/12/15 00:25:36;;;;;;;;;;;;;;;22.28;30.05;96820.63;1024303;28;1261;-54
2021/12/15 00:26:07;;;;;;;;;;;;;;;22.26;29.69;96825.34;1027896;28;2126;-56
2021/12/15 00:26:37;;;;;;;;;;;;;;;22.27;30.12;96828.81;1028729;28;1805;-55
2021/12/15 00:27:08;;;;;;;;;;;;;;;22.27;29.51;96823.53;1031997;28;2200;-54
2021/12/15 00:27:38;;;;;;;;;;;;;;;22.28;29.53;96831.19;1032415;28;1967;-56
2021/12/15 00:28:08;;;;;;;;;;;;;;;22.26;29.63;96822.72;1028656;28;1126;-54
2021/12/15 00:28:39;;;;;;;;;;;;;;;22.26;29.66;96828.00;1031405;28;1659;-54
2021/12/15 00:29:10;;;;;;;;;;;;;;;22.28;29.83;96833.81;1032294;28;1264;-55
2021/12/15 00:29:40;;;;;;;;;;;;;;;22.27;29.59;96824.31;1030934;28;1320;-52
2021/12/15 00:30:11;;;;;;;;;;;;;;;22.26;29.42;96824.56;1031223;28;1880;-53
2021/12/15 00:30:41;;;;;;;;;;;;;;;22.27;29.88;96831.44;1031445;28;1784;-56
2021/12/15 00:31:11;;;;;;;;;;;;;;;22.26;30.35;96822.72;1026454;28;1480;-55
2021/12/15 00:31:44;;;;;;;;;;;;;;;22.26;30.03;96830.66;1031107;28;1648;-53
2021/12/15 00:32:14;;;;;;;;;;;;;;;22.27;29.58;96824.31;1030633;28;2081;-54
2021/12/15 00:32:45;;;;;;;;;;;;;;;22.28;29.97;96825.91;1026603;28;1001;-52
2021/12/15 00:33:15;;;;;;;;;;;;;;;22.28;30.40;96827.72;1030381;28;1394;-55
2021/12/15 00:33:46;;;;;;;;;;;;;;;22.29;30.59;96826.69;1031193;28;998;-56
2021/12/15 00:34:16;;;;;;;;;;;;;;;22.29;30.06;96821.41;1029317;28;1292;-56
2021/12/15 00:34:48;;;;;;;;;;;;;;;22.29;29.71;96821.41;1032755;28;1129;-56
2021/12/15 00:35:18;;;;;;;;;;;;;;;22.30;30.08;96831.72;1031096;28;1058;-56
2021/12/15 00:35:49;;;;;;;;;;;;;;;22.29;29.36;96819.56;1029856;28;1192;-56
2021/12/15 00:36:19;;;;;;;;;;;;;;;22.29;30.05;96821.41;1030275;28;1201;-56
2021/12/15 00:36:49;;;;;;;;;;;;;;;22.27;29.71;96820.88;1031521;28;1081;-55
2021/12/15 00:37:20;;;;;;;;;;;;;;;22.28;30.12;96815.34;1031125;28;1907;-56
2021/12/15 00:37:50;;;;;;;;;;;;;;;22.27;29.86;96824.31;1029686;28;1445;-56
2021/12/15 00:38:21;;;;;;;;;;;;;;;22.28;29.81;96815.34;1032610;28;1098;-56
2021/12/15 00:38:51;;;;;;;;;;;;;;;22.29;30.47;96816.94;1030647;28;1128;-55
2021/12/15 00:39:22;;;;;;;;;;;;;;;22.29;29.78;96814.28;1030325;28;1066;-53
2021/12/15 00:39:52;;;;;;;;;;;;;;;22.27;29.61;96821.69;1032414;28;1204;-55
2021/12/15 00:40:23;;;;;;;;;;;;;;;22.29;29.88;96816.13;1032585;28;1228;-56
2021/12/15 00:40:53;;;;;;;;;;;;;;;22.27;29.71;96819.03;1032683;28;1216;-53
2021/12/15 00:41:23;;;;;;;;;;;;;;;22.29;29.91;96822.22;1032526;28;1432;-54
2021/12/15 00:41:54;;;;;;;;;;;;;;;22.30;30.23;96818.50;1032647;28;1097;-57
2021/12/15 00:42:24;;;;;;;;;;;;;;;22.28;29.53;96814.53;1031161;28;1849;-55
2021/12/15 00:42:54;;;;;;;;;;;;;;;22.26;29.63;96812.16;1030123;28;1132;-55
2021/12/15 00:43:25;;;;;;;;;;;;;;;22.28;29.98;96817.97;1028293;28;1090;-56
2021/12/15 00:43:55;;;;;;;;;;;;;;;22.28;29.95;96817.97;1029197;28;1248;-52
2021/12/15 00:44:25;;;;;;;;;;;;;;;22.27;30.00;96819.03;1033198;28;1298;-53
2021/12/15 00:44:56;;;;;;;;;;;;;;;22.27;29.51;96819.03;1033359;28;1132;-56
2021/12/15 00:45:26;;;;;;;;;;;;;;;22.26;29.10;96821.91;1033092;28;1137;-54
2021/12/15 00:45:57;;;;;;;;;;;;;;;22.26;30.04;96822.72;1028805;28;1437;-55
2021/12/15 00:46:28;;;;;;;;;;;;;;;22.26;29.75;96821.91;1033391;28;1105;-53
2021/12/15 00:46:58;;;;;;;;;;;;;;;22.24;29.42;96819.53;1031626;28;1484;-56
2021/12/15 00:47:28;;;;;;;;;;;;;;;22.26;29.37;96827.19;1032277;28;1906;-56
2021/12/15 00:47:59;;;;;;;;;;;;;;;22.26;29.51;96824.56;1033335;28;1145;-54
2021/12/15 00:48:29;;;;;;;;;;;;;;;22.24;29.55;96811.63;1032682;28;1006;-54
2021/12/15 00:48:59;;;;;;;;;;;;;;;22.27;29.93;96821.69;1029269;28;1188;-55
2021/12/15 00:49:30;;;;;;;;;;;;;;;22.26;29.48;96824.56;1030184;28;1508;-55
2021/12/15 00:50:06;;;;;;;;;;;;;;;22.26;29.21;96825.34;1032413;28;1235;-55
2021/12/15 00:50:36;;;;;;;;;;;;;;;22.26;29.70;96821.91;1032975;28;1185;-54
2021/12/15 00:51:06;;;;;;;;;;;;;;;22.26;29.50;96825.34;1029573;28;1152;-55
2021/12/15 00:51:37;;;;;;;;;;;;;;;22.28;30.09;96825.91;1033119;28;1133;-54
2021/12/15 00:52:08;;;;;;;;;;;;;;;22.27;29.68;96828.81;1032897;28;1209;-55
2021/12/15 00:52:38;;;;;;;;;;;;;;;22.28;30.20;96825.09;1030587;28;2387;-55
2021/12/15 00:53:09;;;;;;;;;;;;;;;22.27;29.75;96824.31;1032750;28;1392;-51
2021/12/15 00:53:39;;;;;;;;;;;;;;;22.29;29.55;96830.13;1032364;28;1394;-56
2021/12/15 00:54:09;;;;;;;;;;;;;;;22.26;29.27;96824.56;1030600;28;1126;-56
2021/12/15 00:54:40;;;;;;;;;;;;;;;22.26;29.45;96827.19;1029175;28;1314;-55
2021/12/15 00:55:11;;;;;;;;;;;;;;;22.26;29.89;96820.06;1032200;28;1473;-54
2021/12/15 00:55:43;;;;;;;;;;;;;;;22.26;29.50;96830.66;1032565;28;1413;-52
2021/12/15 00:56:13;;;;;;;;;;;;;;;22.26;29.85;96827.19;1030025;28;1030;-54
2021/12/15 00:56:44;;;;;;;;;;;;;;;22.25;29.57;96823.78;1032150;28;2146;-52
2021/12/15 00:57:14;;;;;;;;;;;;;;;22.26;30.31;96828.00;1033058;28;1751;-54
2021/12/15 00:57:44;;;;;;;;;;;;;;;22.27;30.16;96832.25;1032241;28;1835;-52
2021/12/15 00:58:15;;;;;;;;;;;;;;;22.27;29.27;96828.81;1031925;28;1478;-53
2021/12/15 00:58:45;;;;;;;;;;;;;;;22.27;29.06;96828.81;1029459;28;1102;-56
2021/12/15 00:59:15;;;;;;;;;;;;;;;22.28;29.95;96827.72;1030229;28;1030;-55
2021/12/15 00:59:46;;;;;;;;;;;;;;;22.27;29.82;96824.31;1029481;28;1183;-55
2021/12/15 01:00:21;;;;;;;;;;;;;;;22.27;29.85;96831.44;1031282;28;1189;-56
2021/12/15 01:00:56;;;;;;;;;;;;;;;22.26;29.86;96829.84;1033040;28;1216;-54
2021/12/15 01:01:26;;;;;;;;;;;;;;;22.26;29.88;96832.47;1031337;28;1043;-56
2021/12/15 01:01:57;;;;;;;;;;;;;;;22.26;29.55;96833.28;1030452;28;1181;-54
2021/12/15 01:02:28;;;;;;;;;;;;;;;22.27;29.77;96832.25;1030696;28;1903;-55
2021/12/15 01:02:58;;;;;;;;;;;;;;;22.28;29.69;96835.66;1030298;28;1901;-55
2021/12/15 01:03:29;;;;;;;;;;;;;;;22.26;29.76;96832.47;1031999;28;979;-53
2021/12/15 01:04:00;;;;;;;;;;;;;;;22.25;29.42;96823.78;1033103;28;1395;-52
2021/12/15 01:04:31;;;;;;;;;;;;;;;22.26;29.77;96830.66;1033207;28;1066;-55
2021/12/15 01:05:01;;;;;;;;;;;;;;;22.26;30.18;96833.28;1030339;28;1164;-52
2021/12/15 01:05:34;;;;;;;;;;;;;;;22.26;30.19;96828.00;1032467;28;1062;-53
2021/12/15 01:06:07;;;;;;;;;;;;;;;22.26;29.72;96833.28;1029777;28;1108;-54
2021/12/15 01:06:38;;;;;;;;;;;;;;;22.27;29.85;96840.16;1032524;28;1134;-52
2021/12/15 01:07:08;;;;;;;;;;;;;;;22.25;29.36;96841.47;1028870;28;1031;-56
2021/12/15 01:07:39;;;;;;;;;;;;;;;22.28;30.00;96840.94;1031827;28;1906;-53
2021/12/15 01:08:13;;;;;;;;;;;;;;;22.29;30.13;96839.91;1033097;28;1177;-55
2021/12/15 01:08:46;;;;;;;;;;;;;;;22.27;29.96;96842.81;1032090;28;1120;-54
2021/12/15 01:09:20;;;;;;;;;;;;;;;22.26;29.57;96838.56;1030148;28;1102;-55
2021/12/15 01:09:53;;;;;;;;;;;;;;;22.28;29.88;96840.94;1033332;28;1231;-55
2021/12/15 01:10:29;;;;;;;;;;;;;;;22.27;29.82;96840.16;1033429;28;1089;-55
2021/12/15 01:11:10;;;;;;;;;;;;;;;22.27;29.35;96844.66;1029134;28;1153;-55
2021/12/15 01:12:52;;;;;;;;;;;;;;;22.29;30.16;96847.81;1030383;28;1842;-53
2021/12/15 01:19:52;;;;;;;;;;;;;;;22.26;29.94;96849.13;1032166;28;1253;-54
2021/12/15 01:20:27;;;;;;;;;;;;;;;22.25;29.22;96855.47;1033421;28;1133;-56
2021/12/15 01:20:58;;;;;;;;;;;;;;;22.25;29.76;96847.56;1030682;28;1679;-55
2021/12/15 01:21:29;;;;;;;;;;;;;;;22.22;28.97;96845.41;1032693;28;1396;-56
2021/12/15 01:21:59;;;;;;;;;;;;;;;22.23;29.46;96852.31;1030173;28;1131;-54
2021/12/15 01:22:34;;;;;;;;;;;;;;;22.23;29.24;96851.50;1030401;28;1825;-54
2021/12/15 01:23:07;;;;;;;;;;;;;;;22.23;29.73;96847.03;1029302;28;1208;-53
2021/12/15 01:23:37;;;;;;;;;;;;;;;22.24;29.56;96848.59;1032696;28;1276;-55
2021/12/15 01:24:08;;;;;;;;;;;;;;;22.24;29.83;96851.25;1031145;28;1363;-55
2021/12/15 01:24:38;;;;;;;;;;;;;;;22.25;30.06;96849.41;1032851;28;1117;-55
2021/12/15 01:25:08;;;;;;;;;;;;;;;22.24;29.60;96848.59;1029465;28;1093;-57
2021/12/15 01:25:40;;;;;;;;;;;;;;;22.25;30.10;96847.56;1033242;28;1120;-53
2021/12/15 01:26:11;;;;;;;;;;;;;;;22.25;29.99;96847.56;1030675;28;1160;-53
2021/12/15 01:26:42;;;;;;;;;;;;;;;22.23;29.24;96849.66;1033455;28;1132;-56
2021/12/15 01:27:12;;;;;;;;;;;;;;;22.24;29.57;96847.78;1032990;28;1045;-52
2021/12/15 01:27:42;;;;;;;;;;;;;;;22.22;29.38;96848.06;1030437;28;1974;-56
2021/12/15 01:28:13;;;;;;;;;;;;;;;22.24;29.28;96848.59;1029741;28;1042;-52
2021/12/15 01:28:43;;;;;;;;;;;;;;;22.23;29.66;96848.88;1032062;28;1050;-55
2021/12/15 01:29:14;;;;;;;;;;;;;;;22.25;29.44;96844.13;1029373;28;1450;-52
2021/12/15 01:29:44;;;;;;;;;;;;;;;22.24;29.35;96843.31;1032724;28;1157;-53
2021/12/15 01:30:15;;;;;;;;;;;;;;;22.26;29.31;96838.56;1033060;28;1421;-54
2021/12/15 01:30:46;;;;;;;;;;;;;;;22.25;29.69;96844.91;1032523;28;1680;-55
2021/12/15 01:31:16;;;;;;;;;;;;;;;22.26;29.48;96848.31;1033068;28;1205;-55
2021/12/15 01:31:46;;;;;;;;;;;;;;;22.27;29.64;96845.44;1033060;28;1120;-55
2021/12/15 01:32:17;;;;;;;;;;;;;;;22.26;29.12;96843.03;1033299;28;1046;-53
2021/12/15 01:32:48;;;;;;;;;;;;;;;22.25;28.90;96847.56;1031082;28;1844;-55
2021/12/15 01:33:18;;;;;;;;;;;;;;;22.24;28.97;96845.94;1033337;28;1041;-52
2021/12/15 01:33:48;;;;;;;;;;;;;;;22.24;29.13;96850.44;1031625;28;1196;-51
2021/12/15 01:34:19;;;;;;;;;;;;;;;22.25;29.49;96846.75;1030940;28;1112;-55
2021/12/15 01:34:49;;;;;;;;;;;;;;;22.25;29.57;96844.13;1033342;28;1132;-54
2021/12/15 01:35:20;;;;;;;;;;;;;;;22.24;29.53;96850.44;1033304;28;1085;-57
2021/12/15 01:35:50;;;;;;;;;;;;;;;22.25;29.66;96852.84;1031932;28;1405;-55
2021/12/15 01:36:21;;;;;;;;;;;;;;;22.25;29.83;96852.03;1033058;28;1066;-55
2021/12/15 01:36:51;;;;;;;;;;;;;;;22.25;29.55;96852.84;1032721;28;1144;-55
2021/12/15 01:37:21;;;;;;;;;;;;;;;22.26;29.51;96850.97;1030881;28;1110;-54
2021/12/15 01:37:52;;;;;;;;;;;;;;;22.25;29.49;96852.03;1031204;28;1962;-53
2021/12/15 01:38:24;;;;;;;;;;;;;;;22.24;29.60;96851.25;1033007;28;1026;-56
2021/12/15 01:38:54;;;;;;;;;;;;;;;22.24;29.55;96851.25;1030865;28;1151;-55
2021/12/15 01:39:24;;;;;;;;;;;;;;;22.24;29.65;96853.88;1031251;28;1225;-55
2021/12/15 01:39:56;;;;;;;;;;;;;;;22.25;29.28;96850.19;1032929;28;1307;-54
2021/12/15 01:40:33;;;;;;;;;;;;;;;22.25;29.55;96847.56;1033276;28;1725;-56
2021/12/15 01:41:05;;;;;;;;;;;;;;;22.25;29.39;96850.19;1030153;28;1323;-56
2021/12/15 01:41:35;;;;;;;;;;;;;;;22.25;29.37;96855.47;1029287;28;2189;-53
2021/12/15 01:42:06;;;;;;;;;;;;;;;22.24;28.95;96848.59;1032391;28;1550;-55
2021/12/15 01:42:37;;;;;;;;;;;;;;;22.25;29.61;96852.84;1032218;28;1955;-55
2021/12/15 01:43:18;;;;;;;;;;;;;;;22.25;29.25;96852.03;1033404;28;864;-56
2021/12/15 01:47:03;;;;;;;;;;;;;;;22.22;29.08;96857.81;1030796;28;1410;-55
2021/12/15 01:47:33;;;;;;;;;;;;;;;22.20;29.17;96855.44;1032475;28;1914;-51
2021/12/15 01:48:05;;;;;;;;;;;;;;;22.21;29.29;96853.59;1032502;28;1074;-55
2021/12/15 01:48:36;;;;;;;;;;;;;;;22.23;29.39;96862.88;1027186;28;1921;-53
2021/12/15 01:49:10;;;;;;;;;;;;;;;22.24;29.77;96855.72;1032627;28;1034;-53
2021/12/15 01:49:48;;;;;;;;;;;;;;;22.23;29.26;96857.59;1025173;28;1755;-55
2021/12/15 01:50:18;;;;;;;;;;;;;;;22.23;29.35;96860.22;1032530;28;1159;-55
2021/12/15 01:50:50;;;;;;;;;;;;;;;22.23;29.88;96860.22;1032675;28;1538;-56
2021/12/15 01:51:20;;;;;;;;;;;;;;;22.25;29.49;96857.31;1032848;28;1224;-56
2021/12/15 01:51:51;;;;;;;;;;;;;;;22.23;29.22;96854.94;1030822;28;1069;-55
2021/12/15 01:52:23;;;;;;;;;;;;;;;22.25;29.22;96855.47;1030573;28;1122;-54
2021/12/15 01:52:53;;;;;;;;;;;;;;;22.25;29.20;96867.88;1030923;28;1864;-55
2021/12/15 01:53:23;;;;;;;;;;;;;;;22.27;29.95;96861.31;1032848;28;1720;-52
2021/12/15 01:53:54;;;;;;;;;;;;;;;22.24;29.51;96861.81;1031545;28;1787;-56
2021/12/15 01:54:25;;;;;;;;;;;;;;;22.25;29.31;96859.97;1032760;28;1043;-54
2021/12/15 01:54:57;;;;;;;;;;;;;;;22.25;29.55;96863.41;1031756;28;1244;-56
2021/12/15 01:55:27;;;;;;;;;;;;;;;22.23;29.17;96865.50;1031165;28;1089;-55
2021/12/15 01:55:57;;;;;;;;;;;;;;;22.24;29.86;96861.81;1032283;28;1506;-51
2021/12/15 01:56:28;;;;;;;;;;;;;;;22.24;29.99;96866.28;1032617;28;1169;-54
2021/12/15 01:56:58;;;;;;;;;;;;;;;22.24;29.53;96858.34;1029728;28;1169;-54
2021/12/15 01:57:29;;;;;;;;;;;;;;;22.24;29.42;96869.72;1031762;28;1130;-51
2021/12/15 01:57:59;;;;;;;;;;;;;;;22.24;29.69;96861.00;1029766;28;1602;-55
2021/12/15 01:58:30;;;;;;;;;;;;;;;22.22;29.26;96863.09;1029500;28;2019;-54
2021/12/15 01:59:00;;;;;;;;;;;;;;;22.24;29.65;96864.44;1029802;28;1154;-54
2021/12/15 01:59:31;;;;;;;;;;;;;;;22.23;29.94;96862.88;1032140;28;1265;-56
2021/12/15 02:00:03;;;;;;;;;;;;;;;22.22;29.53;96861.25;1032129;28;1537;-51
2021/12/15 02:00:39;;;;;;;;;;;;;;;22.22;29.09;96858.63;1032252;28;1189;-55
2021/12/15 02:01:09;;;;;;;;;;;;;;;22.24;29.53;96864.44;1032716;28;1385;-55
2021/12/15 02:01:40;;;;;;;;;;;;;;;22.24;29.10;96861.81;1031902;28;1355;-54
2021/12/15 02:02:10;;;;;;;;;;;;;;;22.26;29.51;96859.69;1028915;28;1460;-56
2021/12/15 02:02:41;;;;;;;;;;;;;;;22.25;29.09;96858.13;1028639;28;1125;-53
2021/12/15 02:03:11;;;;;;;;;;;;;;;22.24;29.41;96861.00;1030652;28;1808;-55
2021/12/15 02:03:41;;;;;;;;;;;;;;;22.23;29.36;96859.44;1030700;28;1660;-52
2021/12/15 02:04:12;;;;;;;;;;;;;;;22.22;29.50;96863.91;1032385;28;1372;-54
2021/12/15 02:04:42;;;;;;;;;;;;;;;22.20;29.04;96859.94;1032583;28;1120;-56
2021/12/15 02:05:13;;;;;;;;;;;;;;;22.21;29.43;96851.75;1029503;28;1181;-54
2021/12/15 02:05:43;;;;;;;;;;;;;;;22.21;29.45;96854.41;1031833;28;1124;-54
2021/12/15 02:06:14;;;;;;;;;;;;;;;22.20;29.46;96858.09;1029258;28;1011;-55
2021/12/15 02:06:45;;;;;;;;;;;;;;;22.22;29.47;96855.97;1030943;28;1583;-55
2021/12/15 02:07:16;;;;;;;;;;;;;;;22.22;29.58;96853.34;1032016;28;1591;-53
2021/12/15 02:07:59;;;;;;;;;;;;;;;22.22;29.12;96858.63;1030440;28;1599;-55
2021/12/15 02:08:42;;;;;;;;;;;;;;;22.22;29.44;96852.53;1028803;28;2086;-53
2021/12/15 02:10:30;;;;;;;;;;;;;;;22.22;29.74;96852.53;1028857;28;1963;-54
2021/12/15 02:11:21;;;;;;;;;;;;;;;22.21;29.27;96854.41;1030160;28;1197;-54
2021/12/15 02:11:51;;;;;;;;;;;;;;;22.21;29.01;96849.13;1030698;28;1145;-55
2021/12/15 02:12:25;;;;;;;;;;;;;;;22.21;29.18;96851.75;1032410;28;1641;-54
2021/12/15 02:13:02;;;;;;;;;;;;;;;22.19;28.86;96851.22;1031728;28;1277;-54
2021/12/15 02:13:53;;;;;;;;;;;;;;;22.21;29.86;96851.75;1030169;28;1948;-54
2021/12/15 02:14:43;;;;;;;;;;;;;;;22.20;29.30;96850.16;1029016;28;1073;-55
2021/12/15 02:15:39;;;;;;;;;;;;;;;22.20;29.52;96850.16;1031758;28;1411;-55
2021/12/15 02:16:09;;;;;;;;;;;;;;;22.21;29.42;96849.13;1028896;28;2253;-55
2021/12/15 02:16:40;;;;;;;;;;;;;;;22.21;29.45;96851.75;1031547;28;1912;-55
2021/12/15 02:17:10;;;;;;;;;;;;;;;22.22;29.43;96852.53;1030812;28;1711;-56
2021/12/15 02:17:41;;;;;;;;;;;;;;;22.22;29.28;96852.53;1032860;28;1133;-56
2021/12/15 02:18:33;;;;;;;;;;;;;;;22.21;29.47;96856.25;1030677;28;1570;-56
2021/12/15 02:19:23;;;;;;;;;;;;;;;22.18;29.17;96846.97;1030882;28;936;-56
2021/12/15 02:20:14;;;;;;;;;;;;;;;22.20;29.18;96849.38;1032260;28;1500;-56
2021/12/15 02:20:49;;;;;;;;;;;;;;;22.21;29.70;96849.13;1032718;28;1144;-56
2021/12/15 02:21:20;;;;;;;;;;;;;;;22.20;29.40;96841.44;1032694;28;1192;-55
2021/12/15 02:22:10;;;;;;;;;;;;;;;22.22;28.97;96848.06;1031059;28;1644;-54
2021/12/15 02:23:01;;;;;;;;;;;;;;;22.20;28.98;96850.16;1028080;28;1197;-56
2021/12/15 02:23:54;;;;;;;;;;;;;;;22.19;28.79;96847.78;1030302;28;1481;-57
2021/12/15 02:24:24;;;;;;;;;;;;;;;22.20;29.26;96849.38;1029371;28;2099;-56
2021/12/15 02:24:55;;;;;;;;;;;;;;;22.19;29.08;96851.22;1032516;28;1217;-56
2021/12/15 02:25:25;;;;;;;;;;;;;;;22.20;29.32;96839.59;1032842;28;1109;-56
2021/12/15 02:25:56;;;;;;;;;;;;;;;22.21;29.75;96846.47;1030578;28;1397;-56
2021/12/15 02:26:37;;;;;;;;;;;;;;;22.19;28.77;96848.59;1032490;28;1686;-54
2021/12/15 02:27:18;;;;;;;;;;;;;;;22.21;29.01;96851.75;1025500;28;1445;-54
2021/12/15 02:28:09;;;;;;;;;;;;;;;22.22;29.74;96845.41;1023261;28;1777;-56
2021/12/15 02:28:40;;;;;;;;;;;;;;;22.23;29.51;96848.88;1027815;28;1548;-55
2021/12/15 02:29:22;;;;;;;;;;;;;;;22.21;28.68;96846.47;1029958;28;1173;-56
2021/12/15 02:30:23;;;;;;;;;;;;;;;22.21;29.44;96843.84;1029774;28;1208;-50
2021/12/15 02:31:20;;;;;;;;;;;;;;;22.21;29.29;96843.84;1032355;28;1304;-54
2021/12/15 02:32:04;;;;;;;;;;;;;;;22.20;29.11;96846.72;1031785;28;1176;-53
2021/12/15 02:32:49;;;;;;;;;;;;;;;22.21;29.05;96840.41;1032234;28;1530;-54
2021/12/15 02:34:05;;;;;;;;;;;;;;;22.21;29.36;96835.13;1035895;28;1135;-56
2021/12/15 02:37:18;;;;;;;;;;;;;;;22.19;28.91;96840.66;1030706;28;1081;-56
2021/12/15 02:37:48;;;;;;;;;;;;;;;22.17;29.32;96840.13;1030402;28;1777;-56
2021/12/15 02:38:24;;;;;;;;;;;;;;;22.17;29.27;96836.69;1032726;28;931;-55
2021/12/15 02:38:55;;;;;;;;;;;;;;;22.18;29.07;96839.06;1031422;28;1021;-55
2021/12/15 02:39:25;;;;;;;;;;;;;;;22.19;29.59;96838.03;1031877;28;1081;-54
2021/12/15 02:39:58;;;;;;;;;;;;;;;22.19;29.38;96838.03;1028594;28;2217;-56
2021/12/15 02:40:30;;;;;;;;;;;;;;;22.17;29.17;96840.13;1031072;28;1130;-55
2021/12/15 02:41:08;;;;;;;;;;;;;;;22.19;29.40;96838.03;1032595;28;1541;-54
2021/12/15 02:41:41;;;;;;;;;;;;;;;22.19;28.92;96829.31;1028557;28;1070;-56
2021/12/15 02:42:11;;;;;;;;;;;;;;;22.19;29.24;96838.03;1030395;28;1695;-56
2021/12/15 02:42:42;;;;;;;;;;;;;;;22.19;28.85;96837.22;1031990;28;1506;-55
2021/12/15 02:43:13;;;;;;;;;;;;;;;22.16;28.84;96830.59;1029230;28;1236;-55
2021/12/15 02:43:43;;;;;;;;;;;;;;;22.17;28.82;96834.84;1031707;28;1141;-55
2021/12/15 02:44:14;;;;;;;;;;;;;;;22.17;28.95;96832.22;1029013;28;1062;-55
2021/12/15 02:44:45;;;;;;;;;;;;;;;22.17;28.93;96834.84;1030763;28;1824;-54
2021/12/15 02:45:17;;;;;;;;;;;;;;;22.16;28.92;96827.16;1032453;28;1109;-53
2021/12/15 02:45:47;;;;;;;;;;;;;;;22.17;29.20;96829.56;1031113;28;1322;-55
2021/12/15 02:46:18;;;;;;;;;;;;;;;22.17;29.46;96834.84;1029807;28;1104;-55
2021/12/15 02:46:48;;;;;;;;;;;;;;;22.19;29.33;96835.38;1031247;28;1121;-54
2021/12/15 02:47:21;;;;;;;;;;;;;;;22.19;29.03;96827.47;1031942;28;1142;-53
2021/12/15 02:47:52;;;;;;;;;;;;;;;22.18;29.41;96831.13;1031584;28;1603;-56
2021/12/15 02:48:22;;;;;;;;;;;;;;;22.18;29.41;96828.50;1030575;28;1480;-56
2021/12/15 02:48:53;;;;;;;;;;;;;;;22.20;29.17;96829.03;1030442;28;1582;-56
2021/12/15 02:49:26;;;;;;;;;;;;;;;22.19;28.81;96832.75;1030523;28;1090;-56
2021/12/15 02:49:57;;;;;;;;;;;;;;;22.17;29.46;96829.56;1028630;28;2168;-56
2021/12/15 02:50:28;;;;;;;;;;;;;;;22.19;29.20;96830.09;1031278;28;1161;-56
2021/12/15 02:50:59;;;;;;;;;;;;;;;22.19;28.96;96830.09;1029689;28;1085;-52
2021/12/15 02:51:29;;;;;;;;;;;;;;;22.18;29.37;96831.13;1031480;28;1167;-56
2021/12/15 02:52:00;;;;;;;;;;;;;;;22.19;29.05;96834.59;1032677;28;1195;-55
2021/12/15 02:52:30;;;;;;;;;;;;;;;22.19;29.55;96831.94;1032668;28;1054;-54
2021/12/15 02:53:00;;;;;;;;;;;;;;;22.21;29.75;96841.19;1032314;28;1189;-55
2021/12/15 02:53:31;;;;;;;;;;;;;;;22.19;29.50;96835.38;1030647;28;1436;-55
2021/12/15 02:54:02;;;;;;;;;;;;;;;22.18;29.17;96830.34;1030734;28;1227;-55
2021/12/15 02:54:33;;;;;;;;;;;;;;;22.19;29.19;96838.03;1031779;28;1852;-53
2021/12/15 02:55:03;;;;;;;;;;;;;;;22.19;29.64;96837.22;1032591;28;1426;-56
2021/12/15 02:55:34;;;;;;;;;;;;;;;22.18;28.92;96841.69;1031883;28;1953;-54
2021/12/15 02:56:04;;;;;;;;;;;;;;;22.18;28.95;96846.19;1029084;28;1153;-54
2021/12/15 02:56:35;;;;;;;;;;;;;;;22.16;28.73;96843.81;1028989;28;1038;-56
2021/12/15 02:57:10;;;;;;;;;;;;;;;22.17;28.99;96845.41;1029139;28;1618;-55
2021/12/15 02:57:40;;;;;;;;;;;;;;;22.18;29.34;96841.69;1032294;28;1100;-54
2021/12/15 02:58:11;;;;;;;;;;;;;;;22.16;28.76;96841.16;1030328;28;1484;-55
2021/12/15 02:58:49;;;;;;;;;;;;;;;22.17;29.34;96840.13;1031926;28;1152;-55
2021/12/15 02:59:20;;;;;;;;;;;;;;;22.19;29.52;96838.03;1032053;28;1022;-54
2021/12/15 03:00:06;;;;;;;;;;;;;;;22.19;29.36;96838.03;1030233;28;2078;-54
2021/12/15 03:00:49;;;;;;;;;;;;;;;22.18;29.32;96839.06;1034309;28;1203;-56
2021/12/15 03:01:30;;;;;;;;;;;;;;;22.19;29.58;96838.03;1034970;28;1081;-55
2021/12/15 03:02:09;;;;;;;;;;;;;;;22.21;29.16;96846.47;1033064;28;1473;-56
2021/12/15 03:05:33;;;;;;;;;;;;;;;22.17;29.04;96842.78;1029606;28;1925;-55
2021/12/15 03:06:24;;;;;;;;;;;;;;;22.16;28.61;96843.81;1029321;28;1620;-54
2021/12/15 03:06:56;;;;;;;;;;;;;;;22.17;28.98;96840.13;1027802;28;1660;-53
2021/12/15 03:15:30;;;;;;;;;;;;;;;22.18;28.96;96844.34;1028989;28;2027;-55
2021/12/15 03:16:00;;;;;;;;;;;;;;;22.16;28.65;96840.38;1028871;28;1539;-54
2021/12/15 03:16:31;;;;;;;;;;;;;;;22.18;29.17;96841.69;1028191;28;1209;-55
2021/12/15 03:17:01;;;;;;;;;;;;;;;22.17;29.30;96839.31;1029607;28;2340;-54
2021/12/15 03:17:32;;;;;;;;;;;;;;;22.17;29.53;96837.50;1032256;28;1104;-57
2021/12/15 03:18:02;;;;;;;;;;;;;;;22.18;29.00;96843.53;1029120;28;1217;-55